createdAt,value
2019-06-01T00:00:46.653Z,6.00
2019-06-01T00:01:46.907Z,8.80
2019-06-01T00:02:52.574Z,4.40
2019-06-01T00:03:48.591Z,7.50
2019-06-01T00:04:47.195Z,5.30
2019-06-01T00:05:46.920Z,6.50
2019-06-01T00:06:47.005Z,6.70
2019-06-01T00:07:47.034Z,6.00
2019-06-01T00:08:47.224Z,5.10
2019-06-01T00:09:47.269Z,5.00
2019-06-01T00:10:47.743Z,5.80
2019-06-01T00:11:47.506Z,5.50
2019-06-01T00:12:47.639Z,5.20
2019-06-01T00:13:47.600Z,4.90
2019-06-01T00:14:48.051Z,6.20
2019-06-01T00:15:46.522Z,5.90
2019-06-01T00:16:47.903Z,5.90
2019-06-01T00:17:46.532Z,5.50
2019-06-01T00:18:46.473Z,5.10
2019-06-01T00:19:46.453Z,6.10
2019-06-01T00:20:46.463Z,6.30
2019-06-01T00:21:47.384Z,5.70
2019-06-01T00:22:47.489Z,5.60
2019-06-01T00:23:46.610Z,6.00
2019-06-01T00:24:46.402Z,4.30
2019-06-01T00:25:46.709Z,7.60
2019-06-01T00:26:47.801Z,5.50
2019-06-01T00:27:46.704Z,6.70
2019-06-01T00:28:46.362Z,8.40
2019-06-01T00:29:46.804Z,6.10
2019-06-01T00:30:46.441Z,5.10
2019-06-01T00:31:47.785Z,7.30
2019-06-01T00:32:47.301Z,6.60
2019-06-01T00:33:47.585Z,5.20
2019-06-01T00:34:46.282Z,5.50
2019-06-01T00:35:47.377Z,5.90
2019-06-01T00:36:46.265Z,5.10
2019-06-01T00:37:47.542Z,7.70
2019-06-01T00:38:46.254Z,5.40
2019-06-01T00:39:46.236Z,7.40
2019-06-01T00:40:46.251Z,8.40
2019-06-01T00:41:46.221Z,7.10
2019-06-01T00:42:46.202Z,8.90
2019-06-01T00:43:46.190Z,6.60
2019-06-01T00:44:46.320Z,6.40
2019-06-01T00:45:46.547Z,5.90
2019-06-01T00:46:46.642Z,6.30
2019-06-01T00:47:46.707Z,6.80
2019-06-01T00:48:46.169Z,4.50
2019-06-01T00:49:46.743Z,5.00
2019-06-01T00:50:46.832Z,5.80
2019-06-01T00:51:47.032Z,4.70
2019-06-01T00:52:47.200Z,5.20
2019-06-01T00:53:47.273Z,9.00
2019-06-01T00:54:47.259Z,8.20
2019-06-01T00:55:47.324Z,6.10
2019-06-01T00:56:46.049Z,7.20
2019-06-01T00:57:46.046Z,11.30
2019-06-01T00:58:46.026Z,8.10
2019-06-01T00:59:46.020Z,4.50
2019-06-01T01:00:47.372Z,5.40
2019-06-01T01:01:46.006Z,7.20
2019-06-01T01:02:46.017Z,5.70
2019-06-01T01:03:46.121Z,9.30
2019-06-01T01:04:46.413Z,7.30
2019-06-01T01:05:47.068Z,7.50
2019-06-01T01:06:46.492Z,6.60
2019-06-01T01:07:46.564Z,7.90
2019-06-01T01:08:47.041Z,6.90
2019-06-01T01:09:46.785Z,5.70
2019-06-01T01:10:46.847Z,6.10
2019-06-01T01:11:46.909Z,8.20
2019-06-01T01:12:47.064Z,6.10
2019-06-01T01:13:47.116Z,6.40
2019-06-01T01:14:45.865Z,10.90
2019-06-01T01:15:45.876Z,6.60
2019-06-01T01:16:45.843Z,4.30
2019-06-01T01:17:45.880Z,7.50
2019-06-01T01:18:45.815Z,7.30
2019-06-01T01:19:45.804Z,5.90
2019-06-01T01:20:45.977Z,5.30
2019-06-01T01:21:45.990Z,8.60
2019-06-01T01:22:46.093Z,5.30
2019-06-01T01:23:46.178Z,5.90
2019-06-01T01:24:46.317Z,9.20
2019-06-01T01:25:46.371Z,5.50
2019-06-01T01:26:46.420Z,6.90
2019-06-01T01:27:46.559Z,5.40
2019-06-01T01:28:46.722Z,9.50
2019-06-01T01:29:46.799Z,6.10
2019-06-01T01:31:01.673Z,5.70
2019-06-01T01:31:47.057Z,6.90
2019-06-01T01:32:47.356Z,5.70
2019-06-01T01:33:45.653Z,5.60
2019-06-01T01:34:45.690Z,7.30
2019-06-01T01:35:45.636Z,6.80
2019-06-01T01:36:45.630Z,6.50
2019-06-01T01:37:45.622Z,5.10
2019-06-01T01:38:45.601Z,5.60
2019-06-01T01:39:45.585Z,7.10
2019-06-01T01:40:45.579Z,8.30
2019-06-01T01:41:45.573Z,6.60
2019-06-01T01:42:45.563Z,6.70
2019-06-01T01:43:45.579Z,6.60
2019-06-01T01:44:45.530Z,7.90
2019-06-01T01:45:45.534Z,5.80
2019-06-01T01:46:45.525Z,5.10
2019-06-01T01:47:45.536Z,7.30
2019-06-01T01:48:45.503Z,7.70
2019-06-01T01:49:45.489Z,6.80
2019-06-01T01:50:45.468Z,7.10
2019-06-01T01:51:45.462Z,7.30
2019-06-01T01:52:45.450Z,6.90
2019-06-01T01:53:45.495Z,5.80
2019-06-01T01:54:45.492Z,7.10
2019-06-01T01:55:45.414Z,8.80
2019-06-01T01:56:45.421Z,6.00
2019-06-01T01:57:45.404Z,6.60
2019-06-01T01:58:45.382Z,8.90
2019-06-01T01:59:45.375Z,5.60
2019-06-01T02:00:45.408Z,5.50
2019-06-01T02:01:45.364Z,8.60
2019-06-01T02:02:45.357Z,7.00
2019-06-01T02:03:45.348Z,7.50
2019-06-01T02:04:45.328Z,7.50
2019-06-01T02:05:45.309Z,6.70
2019-06-01T02:06:45.299Z,7.70
2019-06-01T02:07:45.300Z,11.00
2019-06-01T02:08:45.287Z,6.80
2019-06-01T02:09:45.300Z,6.30
2019-06-01T02:10:45.250Z,6.10
2019-06-01T02:11:45.253Z,9.20
2019-06-01T02:12:45.253Z,7.80
2019-06-01T02:13:45.225Z,6.70
2019-06-01T02:14:45.226Z,6.50
2019-06-01T02:15:45.202Z,8.30
2019-06-01T02:16:45.206Z,7.50
2019-06-01T02:17:45.179Z,6.30
2019-06-01T02:18:45.169Z,7.40
2019-06-01T02:19:45.165Z,9.70
2019-06-01T02:20:45.170Z,7.40
2019-06-01T02:21:45.144Z,6.90
2019-06-01T02:22:45.148Z,8.10
2019-06-01T02:23:45.114Z,4.90
2019-06-01T02:24:45.128Z,7.40
2019-06-01T02:25:45.106Z,6.30
2019-06-01T02:26:45.093Z,6.80
2019-06-01T02:27:45.070Z,7.20
2019-06-01T02:28:45.070Z,10.30
2019-06-01T02:29:45.054Z,5.50
2019-06-01T02:30:45.046Z,5.80
2019-06-01T02:31:45.107Z,6.70
2019-06-01T02:32:45.022Z,6.70
2019-06-01T02:33:45.023Z,7.60
2019-06-01T02:34:44.997Z,7.10
2019-06-01T02:35:44.988Z,7.80
2019-06-01T02:36:44.980Z,9.90
2019-06-01T02:37:44.990Z,6.40
2019-06-01T02:38:44.958Z,8.90
2019-06-01T02:39:44.944Z,7.40
2019-06-01T02:40:44.936Z,7.30
2019-06-01T02:41:44.938Z,7.90
2019-06-01T02:42:44.922Z,6.70
2019-06-01T02:43:44.904Z,6.50
2019-06-01T02:44:44.895Z,6.00
2019-06-01T02:45:44.894Z,7.80
2019-06-01T02:46:44.900Z,8.40
2019-06-01T02:47:44.867Z,6.80
2019-06-01T02:48:44.853Z,7.00
2019-06-01T02:49:44.849Z,7.30
2019-06-01T02:50:44.845Z,6.50
2019-06-01T02:51:44.837Z,9.80
2019-06-01T02:52:44.819Z,5.80
2019-06-01T02:53:44.797Z,7.00
2019-06-01T02:54:44.804Z,7.30
2019-06-01T02:55:44.805Z,6.80
2019-06-01T02:56:44.762Z,6.40
2019-06-01T02:57:44.763Z,6.70
2019-06-01T02:58:44.741Z,6.40
2019-06-01T02:59:44.785Z,7.40
2019-06-01T03:00:44.772Z,6.30
2019-06-01T03:01:56.683Z,6.50
2019-06-01T03:02:45.783Z,8.20
2019-06-01T03:03:44.685Z,7.00
2019-06-01T03:04:44.675Z,6.40
2019-06-01T03:05:44.670Z,6.20
2019-06-01T03:06:44.665Z,8.10
2019-06-01T03:07:44.661Z,6.50
2019-06-01T03:08:44.650Z,6.90
2019-06-01T03:09:44.626Z,6.60
2019-06-01T03:10:44.612Z,7.50
2019-06-01T03:11:44.605Z,5.40
2019-06-01T03:12:44.604Z,6.30
2019-06-01T03:13:44.576Z,7.80
2019-06-01T03:14:44.579Z,6.90
2019-06-01T03:15:44.605Z,8.80
2019-06-01T03:16:44.560Z,7.30
2019-06-01T03:17:44.556Z,8.10
2019-06-01T03:18:44.522Z,5.40
2019-06-01T03:19:44.510Z,6.60
2019-06-01T03:20:44.500Z,6.90
2019-06-01T03:21:44.493Z,6.10
2019-06-01T03:22:44.563Z,6.20
2019-06-01T03:23:44.466Z,7.80
2019-06-01T03:24:44.457Z,5.60
2019-06-01T03:25:44.456Z,7.00
2019-06-01T03:26:44.463Z,5.80
2019-06-01T03:27:44.464Z,8.80
2019-06-01T03:28:44.421Z,6.80
2019-06-01T03:29:44.400Z,6.10
2019-06-01T03:30:45.904Z,6.40
2019-06-01T03:31:44.406Z,6.30
2019-06-01T03:32:44.383Z,5.70
2019-06-01T03:33:44.382Z,5.20
2019-06-01T03:34:44.390Z,6.20
2019-06-01T03:35:44.352Z,7.60
2019-06-01T03:36:44.345Z,5.80
2019-06-01T03:37:44.333Z,5.30
2019-06-01T03:38:44.310Z,7.20
2019-06-01T03:39:44.322Z,6.10
2019-06-01T03:40:44.294Z,8.90
2019-06-01T03:41:44.295Z,10.90
2019-06-01T03:42:44.276Z,6.60
2019-06-01T03:43:44.299Z,7.90
2019-06-01T03:44:44.281Z,7.20
2019-06-01T03:45:44.237Z,8.40
2019-06-01T03:46:44.218Z,8.80
2019-06-01T03:47:44.226Z,5.90
2019-06-01T03:48:44.216Z,7.30
2019-06-01T03:49:44.194Z,9.20
2019-06-01T03:50:44.223Z,8.40
2019-06-01T03:51:44.194Z,6.60
2019-06-01T03:52:44.199Z,7.70
2019-06-01T03:53:44.186Z,6.90
2019-06-01T03:54:44.164Z,10.10
2019-06-01T03:55:44.142Z,7.60
2019-06-01T03:56:44.157Z,7.40
2019-06-01T03:57:44.110Z,7.60
2019-06-01T03:58:44.156Z,6.50
2019-06-01T03:59:44.230Z,8.60
2019-06-01T04:00:44.089Z,8.20
2019-06-01T04:01:47.056Z,6.10
2019-06-01T04:02:44.080Z,6.40
2019-06-01T04:03:44.081Z,6.60
2019-06-01T04:04:44.030Z,8.60
2019-06-01T04:05:44.027Z,7.60
2019-06-01T04:06:44.087Z,6.10
2019-06-01T04:07:44.010Z,8.70
2019-06-01T04:08:44.003Z,7.50
2019-06-01T04:09:43.980Z,6.30
2019-06-01T04:10:43.976Z,7.80
2019-06-01T04:11:43.965Z,7.60
2019-06-01T04:12:43.961Z,6.80
2019-06-01T04:13:43.951Z,7.50
2019-06-01T04:14:43.923Z,7.70
2019-06-01T04:15:43.927Z,6.80
2019-06-01T04:16:43.905Z,6.20
2019-06-01T04:17:43.897Z,6.40
2019-06-01T04:18:43.899Z,8.80
2019-06-01T04:19:43.891Z,6.20
2019-06-01T04:20:43.863Z,6.00
2019-06-01T04:21:43.899Z,6.60
2019-06-01T04:22:43.837Z,6.30
2019-06-01T04:23:43.857Z,7.30
2019-06-01T04:24:43.817Z,6.80
2019-06-01T04:25:43.825Z,8.00
2019-06-01T04:26:43.803Z,7.20
2019-06-01T04:27:43.838Z,6.50
2019-06-01T04:28:43.848Z,6.10
2019-06-01T04:29:43.789Z,13.70
2019-06-01T04:30:43.793Z,11.40
2019-06-01T04:31:43.790Z,9.30
2019-06-01T04:32:49.989Z,6.50
2019-06-01T04:33:44.757Z,7.90
2019-06-01T04:34:43.717Z,6.40
2019-06-01T04:35:43.787Z,8.10
2019-06-01T04:36:43.688Z,7.80
2019-06-01T04:37:43.690Z,7.20
2019-06-01T04:38:43.678Z,9.70
2019-06-01T04:39:43.688Z,6.70
2019-06-01T04:40:43.651Z,7.40
2019-06-01T04:41:43.653Z,9.50
2019-06-01T04:42:43.757Z,8.80
2019-06-01T04:43:43.664Z,6.90
2019-06-01T04:44:43.645Z,7.70
2019-06-01T04:45:43.607Z,8.90
2019-06-01T04:46:43.685Z,6.70
2019-06-01T04:47:43.612Z,8.80
2019-06-01T04:48:43.557Z,8.00
2019-06-01T04:49:43.604Z,12.20
2019-06-01T04:50:43.538Z,6.50
2019-06-01T04:51:43.585Z,9.50
2019-06-01T04:52:43.526Z,10.70
2019-06-01T04:53:43.502Z,8.50
2019-06-01T04:54:43.512Z,8.20
2019-06-01T04:55:43.532Z,11.90
2019-06-01T04:56:43.502Z,9.00
2019-06-01T04:57:43.476Z,10.80
2019-06-01T04:58:43.462Z,9.60
2019-06-01T04:59:43.485Z,13.20
2019-06-01T05:00:43.435Z,10.70
2019-06-01T05:01:43.424Z,9.70
2019-06-01T05:02:43.413Z,9.40
2019-06-01T05:03:43.411Z,8.60
2019-06-01T05:04:43.699Z,9.30
2019-06-01T05:05:43.381Z,11.30
2019-06-01T05:06:43.362Z,10.80
2019-06-01T05:07:43.367Z,12.00
2019-06-01T05:08:43.364Z,14.80
2019-06-01T05:09:43.342Z,12.30
2019-06-01T05:10:43.331Z,15.60
2019-06-01T05:11:43.319Z,13.10
2019-06-01T05:12:43.317Z,16.70
2019-06-01T05:13:43.346Z,14.20
2019-06-01T05:14:43.290Z,14.90
2019-06-01T05:15:43.279Z,14.30
2019-06-01T05:16:43.271Z,13.70
2019-06-01T05:17:43.255Z,13.20
2019-06-01T05:18:43.247Z,16.10
2019-06-01T05:19:43.284Z,16.00
2019-06-01T05:20:43.214Z,17.50
2019-06-01T05:21:43.220Z,15.50
2019-06-01T05:22:43.197Z,15.90
2019-06-01T05:23:43.183Z,15.70
2019-06-01T05:24:43.195Z,16.90
2019-06-01T05:25:43.161Z,17.30
2019-06-01T05:26:43.193Z,15.10
2019-06-01T05:27:43.157Z,15.90
2019-06-01T05:28:43.146Z,19.50
2019-06-01T05:29:43.144Z,20.20
2019-06-01T05:30:43.130Z,20.10
2019-06-01T05:31:43.096Z,16.80
2019-06-01T05:32:43.134Z,14.60
2019-06-01T05:33:43.095Z,19.30
2019-06-01T05:34:43.065Z,17.40
2019-06-01T05:35:43.068Z,21.20
2019-06-01T05:36:43.057Z,18.70
2019-06-01T05:37:43.036Z,15.50
2019-06-01T05:38:43.049Z,16.60
2019-06-01T05:39:43.036Z,17.20
2019-06-01T05:40:43.044Z,19.20
2019-06-01T05:41:42.999Z,17.50
2019-06-01T05:42:42.988Z,17.00
2019-06-01T05:43:42.973Z,18.00
2019-06-01T05:44:42.972Z,17.60
2019-06-01T05:45:42.981Z,16.10
2019-06-01T05:46:42.956Z,18.30
2019-06-01T05:47:42.937Z,15.50
2019-06-01T05:48:42.923Z,17.60
2019-06-01T05:49:42.908Z,20.60
2019-06-01T05:50:42.924Z,15.60
2019-06-01T05:51:42.882Z,14.90
2019-06-01T05:52:42.867Z,13.70
2019-06-01T05:53:42.896Z,16.40
2019-06-01T05:54:42.855Z,15.60
2019-06-01T05:55:42.902Z,13.00
2019-06-01T05:56:42.835Z,12.90
2019-06-01T05:57:42.859Z,14.90
2019-06-01T05:58:42.827Z,15.10
2019-06-01T05:59:42.803Z,13.50
2019-06-01T06:00:42.831Z,12.30
2019-06-01T06:01:42.778Z,14.10
2019-06-01T06:02:42.773Z,15.30
2019-06-01T06:03:42.760Z,12.00
2019-06-01T06:04:42.740Z,12.80
2019-06-01T06:05:42.860Z,14.30
2019-06-01T06:06:42.771Z,15.00
2019-06-01T06:07:42.726Z,13.30
2019-06-01T06:08:42.710Z,17.80
2019-06-01T06:09:42.704Z,14.40
2019-06-01T06:10:42.869Z,13.90
2019-06-01T06:11:42.689Z,15.40
2019-06-01T06:12:42.665Z,15.40
2019-06-01T06:13:42.674Z,13.80
2019-06-01T06:14:42.640Z,13.00
2019-06-01T06:15:42.645Z,13.90
2019-06-01T06:16:42.633Z,16.40
2019-06-01T06:17:42.623Z,12.00
2019-06-01T06:18:42.615Z,13.10
2019-06-01T06:19:42.607Z,16.30
2019-06-01T06:20:42.623Z,16.50
2019-06-01T06:21:42.569Z,14.80
2019-06-01T06:22:42.549Z,11.30
2019-06-01T06:23:42.544Z,15.70
2019-06-01T06:24:42.551Z,12.80
2019-06-01T06:25:42.568Z,12.80
2019-06-01T06:26:42.517Z,13.40
2019-06-01T06:27:42.506Z,12.80
2019-06-01T06:28:42.484Z,16.30
2019-06-01T06:29:42.526Z,14.70
2019-06-01T06:30:42.471Z,14.30
2019-06-01T06:31:42.490Z,12.40
2019-06-01T06:32:42.470Z,14.10
2019-06-01T06:33:55.396Z,13.20
2019-06-01T06:34:43.441Z,11.80
2019-06-01T06:35:42.427Z,11.90
2019-06-01T06:36:42.424Z,14.40
2019-06-01T06:37:42.532Z,12.40
2019-06-01T06:38:42.384Z,12.70
2019-06-01T06:39:42.433Z,13.20
2019-06-01T06:40:42.359Z,13.00
2019-06-01T06:41:42.388Z,13.40
2019-06-01T06:42:42.366Z,15.80
2019-06-01T06:43:42.373Z,12.30
2019-06-01T06:44:42.323Z,14.60
2019-06-01T06:45:42.347Z,14.10
2019-06-01T06:46:42.388Z,13.20
2019-06-01T06:47:42.306Z,12.00
2019-06-01T06:48:42.280Z,11.20
2019-06-01T06:49:42.311Z,11.30
2019-06-01T06:50:42.251Z,11.30
2019-06-01T06:51:42.307Z,10.80
2019-06-01T06:52:42.246Z,11.10
2019-06-01T06:53:42.239Z,12.30
2019-06-01T06:54:42.222Z,10.30
2019-06-01T06:55:42.211Z,11.60
2019-06-01T06:56:42.200Z,11.00
2019-06-01T06:57:42.181Z,16.20
2019-06-01T06:58:42.182Z,10.90
2019-06-01T06:59:42.160Z,12.10
2019-06-01T07:00:42.153Z,10.90
2019-06-01T07:01:42.283Z,12.00
2019-06-01T07:02:42.380Z,10.30
2019-06-01T07:03:42.117Z,11.60
2019-06-01T07:04:42.143Z,11.40
2019-06-01T07:05:42.125Z,10.20
2019-06-01T07:06:42.123Z,10.60
2019-06-01T07:07:42.146Z,15.30
2019-06-01T07:08:42.115Z,11.10
2019-06-01T07:09:42.055Z,11.90
2019-06-01T07:10:42.123Z,9.70
2019-06-01T07:11:42.062Z,10.50
2019-06-01T07:12:42.049Z,10.90
2019-06-01T07:13:42.034Z,10.10
2019-06-01T07:14:42.013Z,10.00
2019-06-01T07:15:42.008Z,10.50
2019-06-01T07:16:42.014Z,9.40
2019-06-01T07:17:41.967Z,13.60
2019-06-01T07:18:41.973Z,10.90
2019-06-01T07:19:41.950Z,10.00
2019-06-01T07:20:41.979Z,10.40
2019-06-01T07:21:41.943Z,12.80
2019-06-01T07:22:41.950Z,11.80
2019-06-01T07:23:41.903Z,11.80
2019-06-01T07:24:41.920Z,12.20
2019-06-01T07:25:41.894Z,10.50
2019-06-01T07:26:41.934Z,10.90
2019-06-01T07:27:41.878Z,9.80
2019-06-01T07:28:44.520Z,11.20
2019-06-01T07:29:41.896Z,10.50
2019-06-01T07:30:50.557Z,11.60
2019-06-01T07:31:42.840Z,10.50
2019-06-01T07:32:41.852Z,9.50
2019-06-01T07:33:41.829Z,8.60
2019-06-01T07:34:42.911Z,9.30
2019-06-01T07:35:41.807Z,10.30
2019-06-01T07:36:41.771Z,13.10
2019-06-01T07:37:41.828Z,9.20
2019-06-01T07:38:41.730Z,12.30
2019-06-01T07:39:41.765Z,10.40
2019-06-01T07:40:41.716Z,9.90
2019-06-01T07:41:41.756Z,7.80
2019-06-01T07:42:41.738Z,12.20
2019-06-01T07:43:41.807Z,9.40
2019-06-01T07:44:41.682Z,9.40
2019-06-01T07:45:41.671Z,11.30
2019-06-01T07:46:41.805Z,9.60
2019-06-01T07:47:41.659Z,11.40
2019-06-01T07:48:41.634Z,9.10
2019-06-01T07:49:41.630Z,8.90
2019-06-01T07:50:41.608Z,7.60
2019-06-01T07:51:41.596Z,9.90
2019-06-01T07:52:41.641Z,9.80
2019-06-01T07:53:41.611Z,10.70
2019-06-01T07:54:41.585Z,7.20
2019-06-01T07:55:41.621Z,10.20
2019-06-01T07:56:41.578Z,7.40
2019-06-01T07:57:43.463Z,7.50
2019-06-01T07:58:41.541Z,7.80
2019-06-01T07:59:41.532Z,8.30
2019-06-01T08:00:41.617Z,6.50
2019-06-01T08:01:41.489Z,6.40
2019-06-01T08:02:41.495Z,7.50
2019-06-01T08:03:41.478Z,8.90
2019-06-01T08:04:53.529Z,9.50
2019-06-01T08:05:42.455Z,6.50
2019-06-01T08:06:46.486Z,6.50
2019-06-01T08:07:42.455Z,8.20
2019-06-01T08:08:41.489Z,6.10
2019-06-01T08:09:41.416Z,6.30
2019-06-01T08:10:41.413Z,6.00
2019-06-01T08:11:41.419Z,7.60
2019-06-01T08:12:41.412Z,7.60
2019-06-01T08:13:41.432Z,7.50
2019-06-01T08:14:41.359Z,4.80
2019-06-01T08:15:41.333Z,7.70
2019-06-01T08:16:41.330Z,6.40
2019-06-01T08:17:41.352Z,6.00
2019-06-01T08:18:41.307Z,5.20
2019-06-01T08:19:41.297Z,6.40
2019-06-01T08:20:41.306Z,7.00
2019-06-01T08:21:41.339Z,6.10
2019-06-01T08:22:41.281Z,6.30
2019-06-01T08:23:41.272Z,6.60
2019-06-01T08:24:41.323Z,6.10
2019-06-01T08:25:41.245Z,6.30
2019-06-01T08:26:41.218Z,6.90
2019-06-01T08:27:41.269Z,8.10
2019-06-01T08:28:41.359Z,5.60
2019-06-01T08:29:41.182Z,6.10
2019-06-01T08:30:41.168Z,6.70
2019-06-01T08:31:41.190Z,5.60
2019-06-01T08:32:41.193Z,6.10
2019-06-01T08:33:41.146Z,5.30
2019-06-01T08:34:41.173Z,7.40
2019-06-01T08:35:41.263Z,7.20
2019-06-01T08:36:41.130Z,7.30
2019-06-01T08:37:41.108Z,4.20
2019-06-01T08:38:41.096Z,5.80
2019-06-01T08:39:41.073Z,5.90
2019-06-01T08:40:41.072Z,6.40
2019-06-01T08:41:41.049Z,4.80
2019-06-01T08:42:41.170Z,8.30
2019-06-01T08:43:41.030Z,5.80
2019-06-01T08:44:41.046Z,9.20
2019-06-01T08:45:41.905Z,6.30
2019-06-01T08:46:41.042Z,5.40
2019-06-01T08:47:40.992Z,4.30
2019-06-01T08:48:40.994Z,5.70
2019-06-01T08:49:40.977Z,5.50
2019-06-01T08:50:41.006Z,5.10
2019-06-01T08:51:40.962Z,6.80
2019-06-01T08:52:40.975Z,4.90
2019-06-01T08:53:40.939Z,6.40
2019-06-01T09:32:20.644Z,2.80
2019-06-01T09:33:13.022Z,3.30
2019-06-01T09:34:12.970Z,5.60
2019-06-01T09:35:13.072Z,9.40
2019-06-01T09:36:12.939Z,2.50
2019-06-01T09:37:12.970Z,3.80
2019-06-01T09:38:13.332Z,3.00
2019-06-01T09:39:12.911Z,2.30
2019-06-01T09:40:12.888Z,2.90
2019-06-01T09:41:12.922Z,6.00
2019-06-01T09:42:12.899Z,4.30
2019-06-01T09:43:12.868Z,2.70
2019-06-01T09:44:12.889Z,5.50
2019-06-01T09:45:12.839Z,3.80
2019-06-01T09:46:12.832Z,3.60
2019-06-01T09:47:12.924Z,2.60
2019-06-01T09:48:14.140Z,3.80
2019-06-01T09:49:12.979Z,4.30
2019-06-01T09:50:12.940Z,1.80
2019-06-01T09:51:12.936Z,2.80
2019-06-01T09:52:13.032Z,3.00
2019-06-01T09:53:12.776Z,8.10
2019-06-01T09:54:12.753Z,3.40
2019-06-01T09:55:12.740Z,4.40
2019-06-01T09:56:12.724Z,3.80
2019-06-01T09:57:12.720Z,3.10
2019-06-01T09:58:12.761Z,3.10
2019-06-01T09:59:12.745Z,3.20
2019-06-01T10:00:12.690Z,2.80
2019-06-01T10:01:12.690Z,3.50
2019-06-01T10:02:12.834Z,6.10
2019-06-01T10:03:12.654Z,7.10
2019-06-01T10:04:12.647Z,4.20
2019-06-01T10:05:12.633Z,3.60
2019-06-01T10:06:14.245Z,2.70
2019-06-01T10:07:12.603Z,4.00
2019-06-01T10:08:12.607Z,4.40
2019-06-01T10:09:12.705Z,2.40
2019-06-01T10:10:12.636Z,3.80
2019-06-01T10:11:12.561Z,2.70
2019-06-01T10:12:12.554Z,3.20
2019-06-01T10:13:12.607Z,4.40
2019-06-01T10:14:12.542Z,2.20
2019-06-01T10:15:12.531Z,1.80
2019-06-01T10:16:12.539Z,3.30
2019-06-01T10:17:13.827Z,3.40
2019-06-01T10:18:12.505Z,2.50
2019-06-01T10:19:12.509Z,3.20
2019-06-01T10:20:12.473Z,3.30
2019-06-01T10:21:12.570Z,2.70
2019-06-01T10:22:12.455Z,2.10
2019-06-01T10:23:12.453Z,2.70
2019-06-01T10:24:12.475Z,2.90
2019-06-01T10:25:12.431Z,6.50
2019-06-01T10:26:12.837Z,2.20
2019-06-01T10:27:12.404Z,2.00
2019-06-01T10:28:12.387Z,2.10
2019-06-01T10:29:12.388Z,2.00
2019-06-01T10:30:12.373Z,3.20
2019-06-01T10:31:12.456Z,2.70
2019-06-01T10:32:12.525Z,1.40
2019-06-01T10:33:12.340Z,2.60
2019-06-01T11:05:50.349Z,1.80
2019-06-01T11:06:49.931Z,4.80
2019-06-01T11:07:49.981Z,2.40
2019-06-01T11:08:49.895Z,2.50
2019-06-01T11:09:49.926Z,4.10
2019-06-01T11:10:49.889Z,3.40
2019-06-01T11:11:49.862Z,2.40
2019-06-01T11:12:49.867Z,1.80
2019-06-01T11:13:49.859Z,2.20
2019-06-01T11:14:49.929Z,1.60
2019-06-01T11:15:49.890Z,2.70
2019-06-01T11:16:55.741Z,2.00
2019-06-01T11:17:50.808Z,1.30
2019-06-01T11:18:49.797Z,1.50
2019-06-01T11:19:49.786Z,2.60
2019-06-01T11:20:49.822Z,2.20
2019-06-01T11:21:49.800Z,2.20
2019-06-01T11:22:49.754Z,1.90
2019-06-01T11:23:49.756Z,2.50
2019-06-01T11:24:49.781Z,2.10
2019-06-01T11:25:49.809Z,2.10
2019-06-01T11:26:49.713Z,8.80
2019-06-01T11:27:50.320Z,2.20
2019-06-01T11:28:49.693Z,3.50
2019-06-01T11:29:51.539Z,1.90
2019-06-01T11:30:49.821Z,2.10
2019-06-01T11:31:49.669Z,2.00
2019-06-01T11:32:49.653Z,2.50
2019-06-01T11:33:49.632Z,1.90
2019-06-01T11:34:49.626Z,2.40
2019-06-01T11:35:49.667Z,5.10
2019-06-01T11:37:04.315Z,2.30
2019-06-01T11:37:50.641Z,2.70
2019-06-01T11:38:49.586Z,2.20
2019-06-01T11:39:49.586Z,5.00
2019-06-01T11:40:49.652Z,1.40
2019-06-01T11:41:49.557Z,1.40
2019-06-01T11:42:49.569Z,3.80
2019-06-01T11:43:49.548Z,2.80
2019-06-01T11:44:49.533Z,2.40
2019-06-01T11:45:49.569Z,1.90
2019-06-01T11:46:49.603Z,4.50
2019-06-01T11:47:49.493Z,1.90
2019-06-01T11:48:49.506Z,2.40
2019-06-01T11:49:49.538Z,2.00
2019-06-01T11:50:49.489Z,1.70
2019-06-01T11:51:50.476Z,2.30
2019-06-01T11:52:49.453Z,2.20
2019-06-01T11:53:49.440Z,2.60
2019-06-01T11:54:49.445Z,3.30
2019-06-01T11:55:49.443Z,2.20
2019-06-01T11:56:49.405Z,1.10
2019-06-01T11:57:49.396Z,1.50
2019-06-01T11:58:49.417Z,2.40
2019-06-01T11:59:49.393Z,4.10
2019-06-01T12:00:49.441Z,1.80
2019-06-01T12:01:49.395Z,1.40
2019-06-01T12:02:49.377Z,1.50
2019-06-01T12:03:49.332Z,1.00
2019-06-01T12:04:49.326Z,2.70
2019-06-01T12:05:49.316Z,1.90
2019-06-01T12:06:49.597Z,2.60
2019-06-01T12:07:49.282Z,2.40
2019-06-01T12:08:49.275Z,1.30
2019-06-01T12:09:49.274Z,3.30
2019-06-01T12:10:49.271Z,2.10
2019-06-01T12:11:49.282Z,2.00
2019-06-01T12:12:49.242Z,1.60
2019-06-01T12:13:49.237Z,2.50
2019-06-01T12:14:49.408Z,1.30
2019-06-01T12:15:49.203Z,2.10
2019-06-01T12:16:49.196Z,2.90
2019-06-01T12:17:49.230Z,4.60
2019-06-01T12:18:49.179Z,2.70
2019-06-01T12:19:49.163Z,1.20
2019-06-01T12:20:49.248Z,1.60
2019-06-01T12:21:49.137Z,2.20
2019-06-01T12:22:49.131Z,3.30
2019-06-01T12:23:49.125Z,1.00
2019-06-01T12:24:49.836Z,2.40
2019-06-01T12:25:49.156Z,1.70
2019-06-01T12:26:49.087Z,3.60
2019-06-01T12:27:49.193Z,5.50
2019-06-01T12:28:49.104Z,6.40
2019-06-01T12:29:52.513Z,1.80
2019-06-01T12:30:49.053Z,1.80
2019-06-01T12:31:49.036Z,1.90
2019-06-01T12:32:49.036Z,1.90
2019-06-01T12:33:49.038Z,2.00
2019-06-01T12:34:49.025Z,2.80
2019-06-01T12:35:49.056Z,2.80
2019-06-01T12:36:49.016Z,1.30
2019-06-01T12:38:04.815Z,4.50
2019-06-01T12:38:49.968Z,1.80
2019-06-01T12:39:52.074Z,12.20
2019-06-01T12:40:50.185Z,10.90
2019-06-01T12:41:48.943Z,7.20
2019-06-01T12:42:48.950Z,4.10
2019-06-01T12:43:48.913Z,1.40
2019-06-01T12:44:48.900Z,2.20
2019-06-01T12:46:04.809Z,1.00
2019-06-01T12:46:49.942Z,2.80
2019-06-01T12:47:54.334Z,2.00
2019-06-01T12:48:49.922Z,1.50
2019-06-01T12:49:48.836Z,2.30
2019-06-01T12:50:50.897Z,3.60
2019-06-01T12:51:49.096Z,2.80
2019-06-01T12:52:48.819Z,4.50
2019-06-01T12:53:48.815Z,4.20
2019-06-01T12:54:49.083Z,3.90
2019-06-01T12:55:48.980Z,2.70
2019-06-01T12:56:49.835Z,3.00
2019-06-01T12:57:49.237Z,1.20
2019-06-01T12:58:48.813Z,3.50
2019-06-01T12:59:48.743Z,1.30
2019-06-01T13:00:48.751Z,6.30
2019-06-01T13:01:49.288Z,1.70
2019-06-01T13:02:59.362Z,1.20
2019-06-01T13:03:49.711Z,3.40
2019-06-01T13:04:49.182Z,1.90
2019-06-01T13:05:49.875Z,5.00
2019-06-01T13:06:52.041Z,3.10
2019-06-01T13:07:58.317Z,2.60
2019-06-01T13:08:49.646Z,2.40
2019-06-01T13:09:48.656Z,7.40
2019-06-01T13:10:49.876Z,2.40
2019-06-01T13:11:49.474Z,3.70
2019-06-01T13:12:49.380Z,2.00
2019-06-01T13:13:49.326Z,1.40
